Terminal Aerodrome Forecast
Issued by NWS

Home | Current Version | Previous Version | Text Only | Print | Product List | Glossary Off
Versions: 1 2 3 4 5 6 7 8 9 10 11 12 13 14 15 16 17 18 19 20 21 22 23 24 25 26 27 28 29 30 31 32 33 34 35

000
FTUS43 KLOT 302335
TAFORD
TAF
KORD 302335Z 0100/0206 03010KT P6SM SCT010 SCT050
      TEMPO 0100/0101 BKN010
     FM010200 04005KT P6SM SCT015 BKN250
     FM011300 01005KT P6SM SCT015 BKN200
     FM011800 04010KT P6SM FEW025 BKN200=

USA.gov is the U.S. government's official web portal to all federal, state and local government web resources and services.